Redrun, Pennsylvania
Current Conditions -  °F | °C
As of 9:53 AM on Friday 28 Nov 2014 (Local Time) from KLNS Reporting Station
Few Clouds Few Clouds  
Wind Chill: 23°   Ceiling: Unl
Heat Index: 33°   Visibility: 10mi
Dew Point: 19°   Wind: 15mph
Humidity: 56%   Direction: 310°NW
Pressure: 30.26"   Gusts: 21mph
Location:  40.2484°N, 76.2239°W
Report Text: KLNS 281453Z 31013G18KT 10SM FEW043 01/M07 A3026 RMK AO2 SLP249 T00061072 51019
Loading
Personal Weather Stations






























Interactive Weather Map New forecast layout! Learn more

10-Day Weather Forecast

Advertisements
Track Severe Weather on mobile